createdAt,value
2018-02-11T00:00:30.068Z,54.98
2018-02-11T00:02:58.764Z,54.46
2018-02-11T00:05:27.439Z,54.88
2018-02-11T00:07:56.133Z,54.35
2018-02-11T00:10:24.717Z,53.59
2018-02-11T00:12:53.525Z,53.53
2018-02-11T00:15:22.486Z,53.41
2018-02-11T00:17:51.741Z,53.66
2018-02-11T00:20:20.360Z,54.19
2018-02-11T00:22:48.976Z,53.62
2018-02-11T00:25:17.648Z,53.74
2018-02-11T00:27:46.474Z,54.31
2018-02-11T00:30:15.226Z,53.69
2018-02-11T00:32:43.807Z,53.55
2018-02-11T00:35:12.477Z,53.44
2018-02-11T00:37:46.850Z,54.03
2018-02-11T00:40:15.885Z,53.91
2018-02-11T00:42:44.487Z,54.42
2018-02-11T00:45:13.089Z,55.17
2018-02-11T00:47:41.808Z,55.33
2018-02-11T00:50:11.057Z,54.25
2018-02-11T00:52:39.743Z,54.21
2018-02-11T00:55:08.429Z,54.87
2018-02-11T00:57:37.218Z,54.15
2018-02-11T01:00:06.007Z,54.62
2018-02-11T01:02:34.528Z,54.94
2018-02-11T01:05:03.227Z,54.38
2018-02-11T01:07:31.963Z,54.28
2018-02-11T01:10:00.550Z,53.95
2018-02-11T01:12:29.149Z,54.22
2018-02-11T01:14:57.832Z,53.23
2018-02-11T01:17:26.494Z,52.95
2018-02-11T01:19:55.182Z,53.90
2018-02-11T01:22:23.776Z,54.56
2018-02-11T01:24:52.458Z,54.70
2018-02-11T01:27:21.252Z,54.51
2018-02-11T01:29:50.178Z,55.67
2018-02-11T01:32:18.811Z,54.91
2018-02-11T01:34:48.279Z,53.97
2018-02-11T01:37:16.948Z,53.75
2018-02-11T01:39:46.009Z,54.91
2018-02-11T01:42:14.670Z,54.55
2018-02-11T01:44:43.176Z,54.23
2018-02-11T01:47:11.913Z,54.24
2018-02-11T01:49:40.567Z,54.08
2018-02-11T01:52:09.232Z,54.28
2018-02-11T01:54:37.930Z,54.59
2018-02-11T01:57:06.611Z,55.25
2018-02-11T01:59:35.229Z,53.89
2018-02-11T02:02:04.401Z,54.85
2018-02-11T02:04:33.010Z,54.32
2018-02-11T02:07:02.339Z,54.21
2018-02-11T02:09:31.082Z,54.96
2018-02-11T02:11:59.861Z,54.10
2018-02-11T02:14:28.532Z,55.67
2018-02-11T02:16:57.134Z,54.68
2018-02-11T02:19:25.926Z,55.69
2018-02-11T02:21:54.500Z,56.17
2018-02-11T02:24:23.380Z,55.63
2018-02-11T02:26:52.379Z,56.44
2018-02-11T02:29:21.244Z,56.11
2018-02-11T02:31:49.976Z,56.88
2018-02-11T02:34:18.749Z,55.96
2018-02-11T02:36:47.639Z,55.80
2018-02-11T02:39:16.325Z,55.96
2018-02-11T02:41:45.105Z,56.70
2018-02-11T02:44:13.825Z,56.68
2018-02-11T02:46:42.580Z,56.79
2018-02-11T02:49:11.299Z,55.43
2018-02-11T02:51:40.089Z,55.03
2018-02-11T02:54:08.972Z,55.13
2018-02-11T02:56:38.147Z,56.24
2018-02-11T02:59:07.099Z,55.43
2018-02-11T03:01:35.738Z,56.35
2018-02-11T03:04:04.609Z,56.12
2018-02-11T03:06:33.320Z,55.48
2018-02-11T03:09:02.191Z,55.50
2018-02-11T03:11:30.854Z,56.13
2018-02-11T03:13:59.573Z,56.73
2018-02-11T03:16:28.309Z,55.69
2018-02-11T03:18:57.340Z,55.73
2018-02-11T03:21:26.135Z,55.79
2018-02-11T03:23:54.766Z,56.30
2018-02-11T03:26:23.942Z,55.90
2018-02-11T03:28:52.705Z,56.75
2018-02-11T03:31:21.342Z,56.06
2018-02-11T03:33:50.079Z,56.41
2018-02-11T03:36:18.700Z,56.53
2018-02-11T03:38:47.412Z,56.76
2018-02-11T03:41:16.131Z,56.59
2018-02-11T03:43:44.846Z,56.36
2018-02-11T03:46:14.956Z,56.20
2018-02-11T03:48:43.646Z,56.17
2018-02-11T03:51:12.273Z,56.67
2018-02-11T03:53:41.809Z,57.67
2018-02-11T03:56:10.502Z,57.38
2018-02-11T03:58:39.178Z,57.62
2018-02-11T04:01:08.584Z,56.53
2018-02-11T04:03:37.285Z,56.95
2018-02-11T04:06:05.962Z,56.62
2018-02-11T04:08:34.560Z,57.60
2018-02-11T04:11:03.126Z,58.06
2018-02-11T04:13:31.811Z,58.36
2018-02-11T04:16:00.642Z,57.56
2018-02-11T04:18:29.291Z,57.33
2018-02-11T04:20:58.073Z,57.98
2018-02-11T04:23:26.601Z,58.50
2018-02-11T04:25:55.205Z,58.38
2018-02-11T04:28:23.876Z,57.64
2018-02-11T04:30:52.716Z,57.73
2018-02-11T04:33:21.137Z,58.27
2018-02-11T04:35:50.074Z,58.90
2018-02-11T04:38:18.542Z,58.24
2018-02-11T04:40:47.127Z,58.34
2018-02-11T04:43:15.883Z,58.41
2018-02-11T04:45:44.363Z,59.06
2018-02-11T04:48:12.848Z,57.82
2018-02-11T04:50:41.247Z,57.14
2018-02-11T04:53:10.029Z,58.05
2018-02-11T04:55:38.417Z,58.20
2018-02-11T04:58:07.181Z,58.16
2018-02-11T05:00:35.644Z,57.13
2018-02-11T05:03:04.145Z,56.96
2018-02-11T05:05:32.640Z,57.03
2018-02-11T05:08:01.402Z,57.90
2018-02-11T05:10:29.784Z,58.36
2018-02-11T05:12:58.176Z,58.28
2018-02-11T05:15:26.989Z,57.54
2018-02-11T05:17:55.363Z,56.95
2018-02-11T05:20:24.216Z,57.52
2018-02-11T05:22:52.766Z,56.98
2018-02-11T05:25:21.157Z,56.90
2018-02-11T05:27:49.538Z,57.16
2018-02-11T05:30:17.946Z,56.96
2018-02-11T05:32:46.359Z,57.07
2018-02-11T05:35:14.758Z,57.47
2018-02-11T05:37:43.546Z,58.57
2018-02-11T05:40:11.920Z,57.79
2018-02-11T05:42:41.162Z,57.46
2018-02-11T05:45:09.553Z,57.83
2018-02-11T05:47:37.955Z,58.35
2018-02-11T05:50:06.819Z,57.39
2018-02-11T05:52:36.124Z,57.52
2018-02-11T05:55:04.510Z,58.98
2018-02-11T05:57:32.890Z,59.55
2018-02-11T06:00:01.267Z,58.13
2018-02-11T06:02:29.689Z,57.39
2018-02-11T06:04:58.069Z,58.52
2018-02-11T06:07:26.454Z,58.99
2018-02-11T06:09:54.827Z,58.97
2018-02-11T06:12:23.241Z,58.90
2018-02-11T06:14:51.607Z,59.03
2018-02-11T06:17:20.069Z,59.13
2018-02-11T06:19:48.508Z,59.48
2018-02-11T06:22:16.876Z,58.78
2018-02-11T06:24:45.255Z,58.48
2018-02-11T06:27:13.629Z,58.49
2018-02-11T06:29:41.997Z,57.52
2018-02-11T06:32:10.388Z,58.95
2018-02-11T06:34:38.743Z,58.14
2018-02-11T06:37:07.120Z,59.35
2018-02-11T06:39:35.481Z,59.19
2018-02-11T06:42:03.870Z,57.62
2018-02-11T06:44:32.251Z,57.60
2018-02-11T06:47:00.660Z,57.71
2018-02-11T06:49:29.029Z,57.32
2018-02-11T06:51:57.435Z,57.65
2018-02-11T06:54:25.840Z,57.90
2018-02-11T06:56:54.250Z,57.56
2018-02-11T06:59:22.660Z,57.26
2018-02-11T07:01:51.147Z,56.89
2018-02-11T07:04:19.510Z,57.02
2018-02-11T07:06:47.908Z,57.27
2018-02-11T07:09:16.663Z,56.65
2018-02-11T07:11:45.055Z,56.01
2018-02-11T07:14:13.426Z,56.15
2018-02-11T07:16:42.103Z,57.05
2018-02-11T07:19:10.470Z,57.08
2018-02-11T07:21:38.849Z,57.32
2018-02-11T07:24:07.227Z,58.07
2018-02-11T07:26:35.674Z,57.13
2018-02-11T07:29:04.483Z,56.16
2018-02-11T07:31:32.879Z,55.50
2018-02-11T07:34:01.242Z,55.95
2018-02-11T07:36:29.613Z,53.41
2018-02-11T07:38:57.972Z,49.32
2018-02-11T07:41:26.869Z,45.97
2018-02-11T07:43:55.648Z,44.76
2018-02-11T07:46:24.422Z,42.99
2018-02-11T07:48:52.817Z,42.38
2018-02-11T07:51:21.648Z,42.33
2018-02-11T07:53:50.041Z,43.27
2018-02-11T07:56:18.420Z,44.06
2018-02-11T07:58:46.923Z,45.31
2018-02-11T08:01:15.337Z,46.57
2018-02-11T08:03:44.516Z,47.85
2018-02-11T08:06:14.865Z,51.09
2018-02-11T08:08:44.717Z,51.35
2018-02-11T08:11:15.207Z,51.28
2018-02-11T08:13:45.135Z,51.32
2018-02-11T08:16:15.005Z,51.52
2018-02-11T08:18:44.632Z,50.37
2018-02-11T08:21:13.456Z,49.67
2018-02-11T08:23:41.822Z,49.65
2018-02-11T08:26:10.208Z,48.54
2018-02-11T08:28:38.587Z,47.38
2018-02-11T08:31:06.969Z,46.19
2018-02-11T08:33:35.346Z,47.06
2018-02-11T08:36:03.737Z,48.78
2018-02-11T08:38:32.092Z,47.97
2018-02-11T08:41:00.539Z,47.34
2018-02-11T08:43:28.921Z,46.14
2018-02-11T08:45:57.730Z,44.46
2018-02-11T08:48:26.805Z,42.54
2018-02-11T08:50:58.676Z,40.93
2018-02-11T08:53:27.805Z,40.54
2018-02-11T08:55:58.477Z,40.88
2018-02-11T08:58:29.180Z,42.88
2018-02-11T09:00:59.808Z,44.78
2018-02-11T09:03:28.409Z,46.73
2018-02-11T09:05:58.224Z,47.19
2018-02-11T09:08:26.678Z,46.72
2018-02-11T09:10:57.131Z,47.87
2018-02-11T09:13:26.030Z,47.82
2018-02-11T09:15:56.366Z,47.57
2018-02-11T09:18:25.989Z,47.33
2018-02-11T09:20:56.355Z,47.09
2018-02-11T09:23:25.376Z,45.96
2018-02-11T09:25:55.940Z,44.28
2018-02-11T09:28:26.372Z,43.54
2018-02-11T09:30:55.656Z,42.91
2018-02-11T09:33:25.619Z,43.91
2018-02-11T09:35:54.081Z,44.24
2018-02-11T09:38:24.695Z,43.41
2018-02-11T09:40:53.796Z,43.90
2018-02-11T09:43:23.089Z,43.87
2018-02-11T09:45:53.820Z,43.91
2018-02-11T09:48:24.377Z,42.75
2018-02-11T09:50:54.360Z,42.74
2018-02-11T09:53:23.136Z,43.41
2018-02-11T09:55:51.551Z,42.74
2018-02-11T09:58:19.989Z,43.92
2018-02-11T10:00:48.415Z,44.06
2018-02-11T10:03:17.198Z,45.44
2018-02-11T10:05:45.961Z,44.77
2018-02-11T10:08:14.389Z,46.43
2018-02-11T10:10:42.792Z,46.36
2018-02-11T10:13:11.254Z,45.68
2018-02-11T10:15:39.615Z,44.96
2018-02-11T10:18:08.221Z,45.22
2018-02-11T10:20:36.585Z,44.84
2018-02-11T10:23:04.944Z,44.36
2018-02-11T10:25:33.786Z,42.87
2018-02-11T10:28:02.144Z,41.15
2018-02-11T10:30:30.517Z,40.81
2018-02-11T10:32:58.869Z,41.63
2018-02-11T10:35:27.645Z,41.32
2018-02-11T10:37:56.009Z,40.85
2018-02-11T10:40:24.404Z,40.28
2018-02-11T10:42:53.177Z,41.66
2018-02-11T10:45:21.608Z,41.34
2018-02-11T10:47:50.017Z,43.19
2018-02-11T10:50:18.405Z,42.11
2018-02-11T10:52:46.764Z,41.44
2018-02-11T10:55:15.127Z,42.19
2018-02-11T10:57:43.477Z,43.29
2018-02-11T11:00:12.252Z,43.22
2018-02-11T11:02:40.630Z,42.85
2018-02-11T11:05:09.090Z,44.99
2018-02-11T11:07:37.499Z,46.86
2018-02-11T11:10:06.267Z,46.79
2018-02-11T11:12:34.623Z,45.92
2018-02-11T11:15:02.979Z,48.10
2018-02-11T11:17:31.341Z,52.57
2018-02-11T11:19:59.727Z,54.89
2018-02-11T11:22:28.088Z,54.05
2018-02-11T11:24:56.848Z,53.93
2018-02-11T11:27:25.246Z,54.38
2018-02-11T11:29:53.995Z,55.67
2018-02-11T11:32:22.363Z,55.36
2018-02-11T11:34:50.713Z,53.51
2018-02-11T11:37:19.085Z,51.32
2018-02-11T11:39:47.442Z,50.37
2018-02-11T11:42:16.220Z,49.15
2018-02-11T11:44:45.020Z,49.58
2018-02-11T11:47:13.394Z,50.50
2018-02-11T11:49:41.828Z,50.53
2018-02-11T11:52:10.190Z,49.71
2018-02-11T11:54:38.570Z,50.19
2018-02-11T11:57:06.941Z,49.56
2018-02-11T11:59:35.301Z,48.15
2018-02-11T12:02:04.083Z,49.33
2018-02-11T12:04:32.847Z,48.16
2018-02-11T12:07:01.215Z,48.78
2018-02-11T12:09:29.574Z,48.47
2018-02-11T12:11:57.928Z,49.99
2018-02-11T12:14:26.275Z,50.92
2018-02-11T12:16:54.637Z,50.20
2018-02-11T12:19:22.995Z,51.91
2018-02-11T12:24:49.766Z,54.89
2018-02-11T12:27:18.129Z,55.15
2018-02-11T12:29:46.492Z,56.49
2018-02-11T12:32:15.658Z,57.75
2018-02-11T12:34:44.387Z,58.53
2018-02-11T12:37:12.743Z,60.10
2018-02-11T12:39:41.088Z,60.69
2018-02-11T12:42:09.552Z,60.89
2018-02-11T12:44:37.900Z,62.33
2018-02-11T12:47:06.262Z,61.35
2018-02-11T12:49:34.602Z,62.00
2018-02-11T12:52:02.964Z,62.80
2018-02-11T12:54:31.300Z,61.67
2018-02-11T12:56:59.669Z,62.94
2018-02-11T12:59:28.015Z,63.07
2018-02-11T13:01:56.459Z,64.14
2018-02-11T13:04:24.833Z,64.33
2018-02-11T13:06:53.183Z,65.08
2018-02-11T13:09:21.527Z,64.22
2018-02-11T13:11:49.890Z,64.21
2018-02-11T13:14:18.235Z,64.71
2018-02-11T13:16:48.284Z,63.51
2018-02-11T13:19:16.637Z,63.28
2018-02-11T13:21:44.986Z,64.03
2018-02-11T13:24:13.335Z,64.68
2018-02-11T13:26:41.675Z,64.80
2018-02-11T13:29:10.369Z,66.25
2018-02-11T13:31:38.757Z,66.17
2018-02-11T13:34:07.109Z,66.60
2018-02-11T13:36:36.136Z,67.42
2018-02-11T13:39:04.507Z,65.70
2018-02-11T13:41:33.356Z,66.77
2018-02-11T13:44:01.875Z,66.28
2018-02-11T13:46:31.766Z,66.82
2018-02-11T13:49:00.419Z,67.99
2018-02-11T13:51:29.427Z,67.42
2018-02-11T13:53:58.261Z,67.20
2018-02-11T13:56:27.560Z,66.48
2018-02-11T13:58:56.288Z,66.67
2018-02-11T14:01:25.247Z,66.38
2018-02-11T14:03:54.132Z,66.89
2018-02-11T14:06:22.801Z,67.61
2018-02-11T14:08:51.993Z,66.49
2018-02-11T14:11:20.907Z,67.90
2018-02-11T14:13:50.802Z,68.07
2018-02-11T14:16:19.603Z,66.61
2018-02-11T14:18:48.501Z,66.55
2018-02-11T14:21:17.318Z,68.01
2018-02-11T14:23:46.643Z,68.64
2018-02-11T14:26:15.396Z,68.63
2018-02-11T14:28:45.218Z,67.42
2018-02-11T14:31:15.277Z,66.73
2018-02-11T14:33:44.582Z,67.67
2018-02-11T14:36:12.995Z,68.78
2018-02-11T14:38:41.352Z,69.63
2018-02-11T14:41:09.705Z,68.65
2018-02-11T14:43:38.189Z,70.03
2018-02-11T14:46:06.543Z,69.22
2018-02-11T14:48:35.279Z,69.26
2018-02-11T14:51:03.633Z,68.90
2018-02-11T14:53:31.989Z,68.79
2018-02-11T14:56:00.797Z,68.48
2018-02-11T14:58:29.148Z,67.91
2018-02-11T15:00:57.905Z,68.00
2018-02-11T15:03:26.253Z,69.55
2018-02-11T15:05:55.042Z,69.48
2018-02-11T15:08:23.401Z,70.28
2018-02-11T15:10:51.791Z,69.21
2018-02-11T15:13:20.388Z,68.87
2018-02-11T15:15:48.754Z,69.39
2018-02-11T15:18:17.116Z,69.48
2018-02-11T15:20:46.578Z,68.15
2018-02-11T15:23:15.254Z,68.28
2018-02-11T15:25:43.633Z,68.39
2018-02-11T15:28:13.513Z,68.55
2018-02-11T15:30:42.229Z,68.06
2018-02-11T15:33:10.637Z,69.17
2018-02-11T15:35:40.493Z,68.39
2018-02-11T15:38:08.937Z,68.23
2018-02-11T15:40:38.525Z,68.49
2018-02-11T15:43:07.407Z,67.94
2018-02-11T15:45:37.225Z,67.20
2018-02-11T15:48:06.088Z,67.02
2018-02-11T15:50:35.074Z,68.19
2018-02-11T15:53:04.303Z,67.03
2018-02-11T15:55:32.673Z,66.93
2018-02-11T15:58:01.033Z,67.07
2018-02-11T16:00:29.419Z,67.77
2018-02-11T16:02:57.772Z,67.23
2018-02-11T16:05:26.118Z,66.91
2018-02-11T16:07:54.460Z,66.52
2018-02-11T16:10:22.841Z,66.40
2018-02-11T16:12:51.191Z,66.91
2018-02-11T16:15:19.543Z,66.29
2018-02-11T16:17:48.311Z,66.26
2018-02-11T16:20:16.695Z,65.75
2018-02-11T16:22:45.059Z,65.62
2018-02-11T16:25:13.419Z,66.11
2018-02-11T16:27:41.789Z,66.64
2018-02-11T16:30:10.163Z,66.42
2018-02-11T16:32:42.223Z,65.46
2018-02-11T16:35:06.923Z,64.99
2018-02-11T16:37:35.299Z,65.60
2018-02-11T16:40:03.657Z,65.43
2018-02-11T16:42:32.068Z,65.63
2018-02-11T16:45:00.446Z,64.18
2018-02-11T16:47:28.825Z,64.32
2018-02-11T16:49:57.188Z,63.83
2018-02-11T16:52:25.582Z,64.04
2018-02-11T16:54:53.989Z,63.98
2018-02-11T16:57:22.348Z,63.33
2018-02-11T16:59:50.717Z,63.51
2018-02-11T17:02:19.082Z,62.73
2018-02-11T17:04:47.427Z,63.28
2018-02-11T17:07:16.200Z,63.21
2018-02-11T17:09:44.549Z,63.12
2018-02-11T17:12:14.012Z,63.05
2018-02-11T17:14:42.751Z,63.41
2018-02-11T17:17:11.121Z,63.06
2018-02-11T17:19:39.478Z,62.67
2018-02-11T17:22:08.054Z,62.29
2018-02-11T17:24:36.419Z,62.57
2018-02-11T17:27:04.828Z,62.03
2018-02-11T17:29:33.187Z,62.52
2018-02-11T17:32:01.620Z,61.82
2018-02-11T17:34:29.963Z,63.72
2018-02-11T17:36:58.343Z,62.89
2018-02-11T17:39:26.720Z,61.90
2018-02-11T17:41:55.086Z,62.62
2018-02-11T17:44:23.445Z,64.24
2018-02-11T17:46:52.407Z,63.44
2018-02-11T17:49:21.187Z,63.38
2018-02-11T17:51:49.627Z,63.13
2018-02-11T17:54:17.991Z,63.81
2018-02-11T17:56:46.414Z,63.58
2018-02-11T17:59:14.757Z,63.42
2018-02-11T18:01:43.119Z,62.80
2018-02-11T18:04:11.877Z,62.72
2018-02-11T18:06:40.278Z,61.74
2018-02-11T18:09:09.060Z,62.31
2018-02-11T18:11:37.416Z,62.25
2018-02-11T18:14:05.781Z,61.73
2018-02-11T18:16:34.159Z,62.14
2018-02-11T18:19:02.517Z,60.97
2018-02-11T18:21:30.885Z,61.35
2018-02-11T18:23:59.747Z,61.70
2018-02-11T18:26:28.503Z,61.54
2018-02-11T18:28:56.879Z,61.66
2018-02-11T18:31:25.248Z,62.05
2018-02-11T18:33:53.606Z,61.67
2018-02-11T18:36:22.026Z,61.15
2018-02-11T18:38:50.467Z,61.19
2018-02-11T18:41:18.838Z,60.72
2018-02-11T18:43:47.214Z,60.82
2018-02-11T18:46:15.576Z,60.18
2018-02-11T18:48:44.319Z,59.86
2018-02-11T18:51:12.689Z,60.06
2018-02-11T18:53:41.033Z,60.58
2018-02-11T18:56:09.379Z,60.09
2018-02-11T18:58:37.734Z,60.19
2018-02-11T19:01:06.087Z,59.98
2018-02-11T19:03:34.446Z,59.45
2018-02-11T19:06:02.838Z,59.48
2018-02-11T19:08:31.191Z,59.25
2018-02-11T19:10:59.946Z,59.58
2018-02-11T19:13:28.296Z,59.68
2018-02-11T19:15:56.652Z,58.89
2018-02-11T19:18:25.015Z,58.99
2018-02-11T19:20:53.797Z,58.73
2018-02-11T19:23:22.527Z,58.87
2018-02-11T19:25:50.892Z,58.81
2018-02-11T19:28:19.254Z,58.29
2018-02-11T19:30:47.632Z,57.77
2018-02-11T19:33:16.016Z,57.96
2018-02-11T19:35:44.380Z,58.22
2018-02-11T19:38:13.139Z,58.61
2018-02-11T19:40:41.513Z,58.00
2018-02-11T19:43:09.867Z,57.73
2018-02-11T19:45:38.256Z,57.84
2018-02-11T19:48:06.624Z,57.92
2018-02-11T19:50:34.995Z,58.11
2018-02-11T19:53:03.348Z,58.34
2018-02-11T19:55:31.713Z,58.01
2018-02-11T19:58:00.447Z,57.96
2018-02-11T20:00:28.814Z,57.99
2018-02-11T20:02:57.245Z,58.09
2018-02-11T20:05:25.590Z,57.88
2018-02-11T20:07:53.962Z,57.30
2018-02-11T20:10:22.352Z,57.66
2018-02-11T20:12:50.729Z,58.45
2018-02-11T20:15:19.107Z,57.68
2018-02-11T20:17:47.453Z,57.24
2018-02-11T20:20:15.830Z,57.42
2018-02-11T20:22:44.178Z,57.83
2018-02-11T20:25:12.539Z,58.23
2018-02-11T20:27:40.908Z,58.01
2018-02-11T20:30:09.265Z,57.95
2018-02-11T20:32:37.618Z,58.34
2018-02-11T20:35:05.987Z,58.62
2018-02-11T20:37:34.747Z,58.41
2018-02-11T20:40:03.124Z,58.52
2018-02-11T20:42:31.501Z,59.17
2018-02-11T20:44:59.863Z,59.17
2018-02-11T20:47:28.218Z,58.49
2018-02-11T20:49:56.599Z,58.44
2018-02-11T20:52:24.991Z,57.89
2018-02-11T20:54:53.340Z,57.94
2018-02-11T20:57:21.700Z,57.55
2018-02-11T20:59:50.468Z,57.66
2018-02-11T21:02:18.825Z,57.81
2018-02-11T21:04:47.216Z,58.50
2018-02-11T21:07:15.638Z,58.24
2018-02-11T21:09:43.992Z,59.34
2018-02-11T21:12:12.744Z,58.42
2018-02-11T21:14:41.104Z,58.63
2018-02-11T21:17:09.470Z,58.65
2018-02-11T21:19:37.845Z,58.64
2018-02-11T21:22:06.216Z,58.72
2018-02-11T21:24:34.585Z,58.94
2018-02-11T21:27:03.344Z,59.35
2018-02-11T21:29:31.696Z,59.80
2018-02-11T21:32:00.064Z,59.86
2018-02-11T21:34:28.488Z,59.52
2018-02-11T21:36:57.260Z,59.63
2018-02-11T21:39:25.658Z,60.25
2018-02-11T21:41:54.281Z,59.88
2018-02-11T21:44:22.635Z,59.78
2018-02-11T21:46:51.395Z,60.55
2018-02-11T21:49:19.856Z,60.11
2018-02-11T21:51:48.240Z,60.33
2018-02-11T21:54:16.611Z,60.24
2018-02-11T21:56:45.033Z,60.34
2018-02-11T21:59:13.882Z,60.70
2018-02-11T22:01:42.253Z,60.69
2018-02-11T22:04:11.155Z,59.88
2018-02-11T22:06:39.506Z,59.23
2018-02-11T22:09:07.860Z,59.09
2018-02-11T22:11:36.611Z,58.77
2018-02-11T22:14:05.002Z,59.03
2018-02-11T22:16:33.377Z,59.07
2018-02-11T22:19:01.785Z,60.16
2018-02-11T22:21:30.130Z,60.89
2018-02-11T22:23:58.550Z,60.51
2018-02-11T22:26:26.981Z,60.72
2018-02-11T22:28:55.331Z,61.32
2018-02-11T22:31:23.744Z,60.83
2018-02-11T22:33:52.144Z,60.75
2018-02-11T22:36:20.505Z,60.81
2018-02-11T22:38:48.856Z,61.10
2018-02-11T22:41:17.234Z,61.23
2018-02-11T22:43:45.614Z,61.24
2018-02-11T22:46:13.983Z,60.87
2018-02-11T22:48:42.371Z,60.80
2018-02-11T22:51:10.768Z,60.33
2018-02-11T22:53:39.193Z,60.54
2018-02-11T22:56:07.943Z,60.39
2018-02-11T22:58:36.282Z,59.96
2018-02-11T23:01:04.676Z,60.04
2018-02-11T23:03:33.076Z,59.74
2018-02-11T23:06:01.439Z,60.49
2018-02-11T23:08:29.786Z,60.56
2018-02-11T23:10:58.169Z,60.40
2018-02-11T23:13:26.555Z,61.06
2018-02-11T23:15:54.911Z,61.09
2018-02-11T23:18:23.759Z,60.86
2018-02-11T23:20:52.151Z,61.46
2018-02-11T23:23:20.524Z,61.18
2018-02-11T23:25:48.891Z,61.54
2018-02-11T23:28:17.244Z,61.19
2018-02-11T23:30:45.624Z,60.82
2018-02-11T23:33:13.977Z,61.09
2018-02-11T23:35:42.685Z,61.46
2018-02-11T23:38:11.266Z,61.80
2018-02-11T23:40:40.150Z,61.68
2018-02-11T23:43:08.745Z,61.23
2018-02-11T23:45:37.447Z,61.51
2018-02-11T23:48:06.081Z,62.04
2018-02-11T23:50:34.863Z,62.02
2018-02-11T23:53:04.476Z,62.53
2018-02-11T23:55:33.169Z,62.56
2018-02-11T23:58:01.765Z,62.31
